createdAt,value
2019-01-08T00:00:21.981Z,97319.55
2019-01-08T00:03:29.114Z,97300.92
2019-01-08T00:06:36.355Z,97287.51
2019-01-08T00:09:43.326Z,97286.63
2019-01-08T00:12:50.296Z,97278.23
2019-01-08T00:15:57.271Z,97259.74
2019-01-08T00:19:04.224Z,97260.50
2019-01-08T00:22:11.251Z,97257.99
2019-01-08T00:25:18.190Z,97244.39
2019-01-08T00:28:25.165Z,97244.80
2019-01-08T00:31:34.139Z,97253.25
2019-01-08T00:34:40.800Z,97238.95
2019-01-08T00:37:47.762Z,97238.14
2019-01-08T00:40:54.721Z,97235.17
2019-01-08T00:44:01.667Z,97225.06
2019-01-08T00:47:08.648Z,97218.77
2019-01-08T00:50:15.924Z,97214.55
2019-01-08T00:53:22.881Z,97210.77
2019-01-08T00:56:29.831Z,97190.05
2019-01-08T00:59:37.097Z,97195.66
2019-01-08T01:02:44.078Z,97179.23
2019-01-08T01:05:51.106Z,97182.17
2019-01-08T01:08:58.047Z,97164.11
2019-01-08T01:12:05.027Z,97157.77
2019-01-08T01:15:11.976Z,97151.03
2019-01-08T01:18:18.925Z,97141.38
2019-01-08T01:21:25.894Z,97137.53
2019-01-08T01:24:34.708Z,97129.95
2019-01-08T01:27:41.650Z,97129.16
2019-01-08T01:30:48.626Z,97127.83
2019-01-08T01:33:55.562Z,97119.05
2019-01-08T01:37:02.522Z,97114.41
2019-01-08T01:40:09.629Z,97097.61
2019-01-08T01:43:16.663Z,97086.96
2019-01-08T01:46:23.617Z,97098.54
2019-01-08T01:49:30.740Z,97084.89
2019-01-08T01:52:38.782Z,97077.38
2019-01-08T01:55:45.765Z,97064.35
2019-01-08T01:58:52.744Z,97063.09
2019-01-08T02:01:59.786Z,97067.70
2019-01-08T02:05:06.840Z,97051.34
2019-01-08T02:08:13.907Z,97041.91
2019-01-08T02:11:20.823Z,97035.19
2019-01-08T02:14:27.842Z,97033.94
2019-01-08T02:17:37.628Z,97017.92
2019-01-08T02:20:44.621Z,97001.00
2019-01-08T02:23:51.551Z,97007.88
2019-01-08T02:26:58.564Z,97013.78
2019-01-08T02:30:05.935Z,96999.48
2019-01-08T02:33:13.014Z,96982.16
2019-01-08T02:36:19.995Z,96996.92
2019-01-08T02:39:26.944Z,96988.88
2019-01-08T02:42:34.383Z,96963.75
2019-01-08T02:45:41.413Z,96953.98
2019-01-08T02:48:48.343Z,96975.58
2019-01-08T02:51:55.319Z,96967.54
2019-01-08T02:55:02.742Z,96960.97
2019-01-08T02:58:09.756Z,96948.84
2019-01-08T03:01:16.773Z,96942.53
2019-01-08T03:04:23.766Z,96928.48
2019-01-08T03:07:30.760Z,96904.52
2019-01-08T03:10:39.373Z,96904.96
2019-01-08T03:13:46.334Z,96877.95
2019-01-08T03:16:53.348Z,96892.31
2019-01-08T03:20:00.285Z,96898.14
2019-01-08T03:23:07.315Z,96878.81
2019-01-08T03:26:14.248Z,96869.09
2019-01-08T03:29:21.246Z,96873.33
2019-01-08T03:32:28.232Z,96850.92
2019-01-08T03:35:35.669Z,96851.03
2019-01-08T03:38:42.611Z,96833.25
2019-01-08T03:41:49.705Z,96833.25
2019-01-08T03:44:56.669Z,96815.48
2019-01-08T03:48:03.667Z,96807.43
2019-01-08T03:51:10.649Z,96808.17
2019-01-08T03:54:17.630Z,96809.83
2019-01-08T03:57:25.075Z,96801.08
2019-01-08T04:00:34.408Z,96806.45
2019-01-08T04:03:41.442Z,96787.91
2019-01-08T04:06:48.442Z,96784.53
2019-01-08T04:09:55.425Z,96800.52
2019-01-08T04:13:02.401Z,96801.40
2019-01-08T04:16:09.394Z,96801.40
2019-01-08T04:19:16.409Z,96794.17
2019-01-08T04:22:23.383Z,96789.95
2019-01-08T04:25:30.378Z,96787.88
2019-01-08T04:28:37.377Z,96784.94
2019-01-08T04:31:44.338Z,96774.48
2019-01-08T04:34:51.292Z,96784.53
2019-01-08T04:37:58.291Z,96769.37
2019-01-08T04:41:05.253Z,96771.89
2019-01-08T04:44:12.206Z,96755.52
2019-01-08T04:47:19.150Z,96766.90
2019-01-08T04:50:26.153Z,96750.56
2019-01-08T04:53:34.380Z,96757.64
2019-01-08T04:56:41.370Z,96763.96
2019-01-08T04:59:48.554Z,96749.73
2019-01-08T05:02:55.515Z,96745.27
2019-01-08T05:06:02.759Z,96731.69
2019-01-08T05:09:09.745Z,96727.92
2019-01-08T05:12:16.703Z,96731.75
2019-01-08T05:15:23.691Z,96722.48
2019-01-08T05:18:30.651Z,96730.14
2019-01-08T05:21:39.272Z,96712.76
2019-01-08T05:24:47.757Z,96695.64
2019-01-08T05:27:54.754Z,96693.00
2019-01-08T05:31:01.708Z,96690.94
2019-01-08T05:34:08.702Z,96690.45
2019-01-08T05:37:15.632Z,96696.38
2019-01-08T05:40:22.621Z,96675.70
2019-01-08T05:43:29.555Z,96663.48
2019-01-08T05:46:37.227Z,96652.59
2019-01-08T05:49:44.170Z,96651.76
2019-01-08T05:52:51.142Z,96646.34
2019-01-08T05:55:58.100Z,96641.72
2019-01-08T05:59:05.070Z,96631.22
2019-01-08T06:02:13.116Z,96630.77
2019-01-08T06:05:20.096Z,96620.33
2019-01-08T06:08:27.031Z,96616.45
2019-01-08T06:11:37.144Z,96617.75
2019-01-08T06:14:44.123Z,96610.59
2019-01-08T06:17:51.093Z,96611.09
2019-01-08T06:20:58.258Z,96609.39
2019-01-08T06:24:05.255Z,96614.30
2019-01-08T06:27:12.203Z,96612.28
2019-01-08T06:30:24.732Z,96604.59
2019-01-08T06:33:27.874Z,96598.72
2019-01-08T06:36:37.812Z,96588.92
2019-01-08T06:39:44.756Z,96572.84
2019-01-08T06:42:51.842Z,96571.16
2019-01-08T06:45:59.913Z,96570.34
2019-01-08T06:49:07.004Z,96570.66
2019-01-08T06:52:14.020Z,96565.27
2019-01-08T06:55:20.985Z,96554.27
2019-01-08T06:58:27.935Z,96543.97
2019-01-08T07:01:34.995Z,96540.11
2019-01-08T07:04:42.097Z,96529.07
2019-01-08T07:07:49.148Z,96529.69
2019-01-08T07:10:56.064Z,96519.55
2019-01-08T07:14:03.036Z,96509.20
2019-01-08T07:17:10.033Z,96510.91
2019-01-08T07:20:17.021Z,96507.75
2019-01-08T07:23:25.034Z,96501.83
2019-01-08T07:26:33.226Z,96484.59
2019-01-08T07:29:40.141Z,96493.38
2019-01-08T07:32:47.123Z,96492.09
2019-01-08T07:35:54.245Z,96488.16
2019-01-08T07:39:01.294Z,96490.30
2019-01-08T07:42:08.278Z,96488.92
2019-01-08T07:45:15.250Z,96484.20
2019-01-08T07:48:22.435Z,96485.45
2019-01-08T07:51:29.391Z,96477.55
2019-01-08T07:54:37.086Z,96474.97
2019-01-08T07:57:44.124Z,96465.95
2019-01-08T08:00:51.070Z,96447.34
2019-01-08T08:03:58.044Z,96449.39
2019-01-08T08:07:05.333Z,96445.96
2019-01-08T08:10:12.341Z,96444.70
2019-01-08T08:13:19.568Z,96433.92
2019-01-08T08:16:26.535Z,96429.58
2019-01-08T08:19:34.369Z,96427.86
2019-01-08T08:22:41.355Z,96431.86
2019-01-08T08:25:48.361Z,96438.64
2019-01-08T08:28:55.316Z,96430.72
2019-01-08T08:32:02.231Z,96419.07
2019-01-08T08:35:09.245Z,96398.44
2019-01-08T08:38:16.166Z,96387.87
2019-01-08T08:41:24.753Z,96387.42
2019-01-08T08:44:31.710Z,96386.58
2019-01-08T08:47:38.900Z,96376.84
2019-01-08T08:50:45.851Z,96381.03
2019-01-08T08:53:52.986Z,96379.17
2019-01-08T08:57:00.057Z,96375.58
2019-01-08T09:00:08.511Z,96377.84
2019-01-08T09:03:15.442Z,96376.41
2019-01-08T09:06:22.429Z,96371.36
2019-01-08T09:09:29.995Z,96373.47
2019-01-08T09:12:36.979Z,96372.91
2019-01-08T09:15:43.940Z,96369.25
2019-01-08T09:18:50.911Z,96380.25
2019-01-08T09:21:58.307Z,96375.67
2019-01-08T09:25:05.459Z,96380.34
2019-01-08T09:28:12.430Z,96382.98
2019-01-08T09:31:19.578Z,96372.53
2019-01-08T09:34:26.587Z,96373.08
2019-01-08T09:37:33.927Z,96374.83
2019-01-08T09:40:40.848Z,96367.67
2019-01-08T09:43:47.857Z,96364.81
2019-01-08T09:46:54.780Z,96358.03
2019-01-08T09:50:01.863Z,96357.67
2019-01-08T09:53:08.817Z,96345.61
2019-01-08T09:56:15.897Z,96338.06
2019-01-08T09:59:22.858Z,96333.00
2019-01-08T10:02:29.992Z,96329.63
2019-01-08T10:05:37.026Z,96325.70
2019-01-08T10:08:44.055Z,96320.41
2019-01-08T10:11:51.194Z,96318.03
2019-01-08T10:14:59.104Z,96306.02
2019-01-08T10:18:06.049Z,96301.77
2019-01-08T10:21:13.262Z,96301.91
2019-01-08T10:24:20.605Z,96292.84
2019-01-08T10:27:27.652Z,96285.98
2019-01-08T10:30:37.432Z,96284.99
2019-01-08T10:33:44.455Z,96288.08
2019-01-08T10:36:51.689Z,96287.73
2019-01-08T10:40:01.402Z,96280.59
2019-01-08T10:43:08.146Z,96274.27
2019-01-08T10:46:15.139Z,96266.78
2019-01-08T10:49:23.670Z,96256.62
2019-01-08T10:52:32.849Z,96245.53
2019-01-08T10:55:39.873Z,96237.44
2019-01-08T10:58:46.865Z,96240.28
2019-01-08T11:01:53.784Z,96236.02
2019-01-08T11:05:00.787Z,96223.06
2019-01-08T11:08:10.443Z,96222.72
2019-01-08T12:28:43.910Z,96011.03
2019-01-08T12:31:49.437Z,96018.62
2019-01-08T12:34:55.010Z,96023.03
2019-01-08T12:38:01.897Z,96030.04
2019-01-08T12:41:08.907Z,96028.94
2019-01-08T12:44:15.555Z,96025.56
2019-01-08T12:47:23.114Z,96024.30
2019-01-08T12:50:30.281Z,96022.27
2019-01-08T12:53:37.283Z,96025.19
2019-01-08T12:56:44.190Z,96029.02
2019-01-08T12:59:51.371Z,96036.00
2019-01-08T13:02:58.305Z,96041.45
2019-01-08T13:06:05.974Z,96035.84
2019-01-08T13:09:12.844Z,96030.78
2019-01-08T13:12:20.655Z,96031.63
2019-01-08T13:15:27.346Z,96034.70
2019-01-08T13:18:34.498Z,96029.18
2019-01-08T13:21:41.398Z,96033.90
2019-01-08T13:24:48.667Z,96035.13
2019-01-08T13:27:55.390Z,96030.59
2019-01-08T13:31:02.426Z,96037.69
2019-01-08T13:34:09.429Z,96025.80
2019-01-08T13:37:16.377Z,96016.50
2019-01-08T13:40:23.394Z,96010.13
2019-01-08T13:43:30.370Z,96011.89
2019-01-08T13:46:37.844Z,96015.98
2019-01-08T13:49:46.557Z,96011.39
2019-01-08T13:52:53.426Z,96009.66
2019-01-08T13:56:00.429Z,96006.21
2019-01-08T13:59:07.342Z,96014.94
2019-01-08T14:02:14.293Z,96009.88
2019-01-08T14:05:22.252Z,96010.94
2019-01-08T14:08:29.244Z,96012.03
2019-01-08T14:11:37.103Z,96010.38
2019-01-08T14:14:45.357Z,96007.14
2019-01-08T14:17:52.558Z,96009.72
2019-01-08T14:20:59.550Z,96007.38
2019-01-08T14:24:06.528Z,96002.10
2019-01-08T14:27:14.026Z,95996.50
2019-01-08T14:30:20.751Z,95987.16
2019-01-08T14:33:28.701Z,95974.50
2019-01-08T14:36:36.380Z,95964.25
2019-01-08T14:39:43.430Z,95959.85
2019-01-08T14:42:50.341Z,95958.54
2019-01-08T14:45:57.612Z,95964.58
2019-01-08T14:49:04.325Z,95954.51
2019-01-08T14:52:11.300Z,95956.42
2019-01-08T14:55:18.207Z,95960.75
2019-01-08T14:58:42.805Z,95955.69
2019-01-08T15:01:51.970Z,95949.48
2019-01-08T15:04:59.455Z,95956.66
